createdAt,value
2018-10-01T00:00:16.214Z,17.47
2018-10-01T00:02:44.301Z,18.80
2018-10-01T00:05:16.082Z,15.53
2018-10-01T00:07:44.175Z,18.83
2018-10-01T00:10:12.351Z,13.27
2018-10-01T00:12:40.454Z,16.53
2018-10-01T00:15:08.543Z,14.20
2018-10-01T00:17:36.671Z,17.63
2018-10-01T00:20:10.083Z,18.83
2018-10-01T00:22:43.470Z,17.47
2018-10-01T00:25:11.556Z,16.33
2018-10-01T00:27:39.625Z,20.83
2018-10-01T00:30:07.715Z,22.00
2018-10-01T00:32:36.170Z,21.23
2018-10-01T00:35:04.284Z,16.60
2018-10-01T00:37:32.371Z,16.03
2018-10-01T00:40:00.459Z,17.40
2018-10-01T00:42:28.612Z,17.17
2018-10-01T00:44:56.695Z,19.70
2018-10-01T00:47:24.769Z,15.10
2018-10-01T00:49:52.858Z,15.07
2018-10-01T00:52:20.929Z,14.07
2018-10-01T00:54:49.049Z,18.07
2018-10-01T00:57:17.126Z,16.57
2018-10-01T00:59:45.281Z,14.30
2018-10-01T01:02:13.359Z,16.17
2018-10-01T01:04:41.445Z,14.40
2018-10-01T01:07:09.822Z,11.93
2018-10-01T01:09:37.929Z,15.70
2018-10-01T01:12:06.035Z,13.77
2018-10-01T01:14:34.121Z,15.57
2018-10-01T01:17:02.186Z,13.77
2018-10-01T01:19:30.260Z,14.93
2018-10-01T01:21:58.398Z,12.83
2018-10-01T01:24:26.496Z,11.40
2018-10-01T01:26:54.593Z,10.70
2018-10-01T01:29:22.805Z,11.83
2018-10-01T01:31:51.091Z,16.83
2018-10-01T01:34:19.164Z,14.03
2018-10-01T01:36:47.246Z,14.67
2018-10-01T01:39:15.319Z,11.77
2018-10-01T01:41:43.451Z,14.63
2018-10-01T01:44:11.530Z,13.97
2018-10-01T01:46:39.695Z,14.97
2018-10-01T01:49:07.766Z,12.97
2018-10-01T01:51:35.852Z,16.37
2018-10-01T01:54:03.922Z,16.30
2018-10-01T01:56:32.230Z,13.37
2018-10-01T01:59:00.366Z,15.27
2018-10-01T02:01:28.462Z,13.27
2018-10-01T02:03:56.539Z,14.93
2018-10-01T02:06:24.625Z,16.60
2018-10-01T02:08:52.699Z,13.27
2018-10-01T02:11:20.874Z,14.27
2018-10-01T02:13:48.955Z,12.23
2018-10-01T02:16:17.052Z,14.87
2018-10-01T02:18:45.142Z,15.50
2018-10-01T02:21:13.221Z,13.53
2018-10-01T02:23:41.302Z,16.50
2018-10-01T02:26:09.376Z,12.33
2018-10-01T02:28:37.453Z,15.60
2018-10-01T02:31:05.528Z,14.87
2018-10-01T02:33:33.622Z,14.20
2018-10-01T02:36:01.707Z,13.83
2018-10-01T02:38:29.786Z,14.47
2018-10-01T02:40:57.855Z,17.07
2018-10-01T02:43:25.942Z,15.50
2018-10-01T02:45:54.025Z,42.90
2018-10-01T02:48:22.101Z,19.13
2018-10-01T02:50:50.169Z,13.83
2018-10-01T02:53:23.554Z,14.23
2018-10-01T02:55:51.626Z,12.93
2018-10-01T02:58:19.709Z,17.67
2018-10-01T03:00:47.800Z,15.63
2018-10-01T03:03:15.880Z,15.97
2018-10-01T03:05:43.975Z,21.37
2018-10-01T03:08:12.048Z,19.67
2018-10-01T03:10:40.123Z,14.97
2018-10-01T03:13:08.213Z,16.67
2018-10-01T03:15:36.332Z,22.13
2018-10-01T03:18:04.405Z,18.77
2018-10-01T03:20:32.489Z,16.20
2018-10-01T03:23:00.671Z,20.13
2018-10-01T03:25:28.801Z,18.93
2018-10-01T03:27:56.835Z,15.50
2018-10-01T03:30:25.005Z,17.93
2018-10-01T03:32:52.998Z,16.63
2018-10-01T03:35:21.082Z,16.77
2018-10-01T03:37:49.154Z,23.23
2018-10-01T03:40:17.300Z,22.33
2018-10-01T03:42:45.309Z,17.30
2018-10-01T03:45:13.389Z,18.40
2018-10-01T03:47:41.460Z,21.77
2018-10-01T03:50:09.805Z,23.20
2018-10-01T03:52:38.134Z,20.87
2018-10-01T03:55:06.248Z,15.20
2018-10-01T03:57:34.493Z,13.70
2018-10-01T04:00:02.580Z,19.23
2018-10-01T04:02:30.662Z,16.47
2018-10-01T04:04:58.791Z,24.40
2018-10-01T04:07:26.832Z,28.53
2018-10-01T04:09:54.915Z,15.93
2018-10-01T04:12:22.999Z,17.73
2018-10-01T04:14:51.105Z,22.57
2018-10-01T04:17:19.216Z,20.83
2018-10-01T04:19:47.306Z,21.20
2018-10-01T04:22:15.518Z,14.70
2018-10-01T04:24:43.730Z,15.23
2018-10-01T04:27:11.867Z,16.33
2018-10-01T04:29:39.966Z,34.70
2018-10-01T04:32:08.067Z,69.57
2018-10-01T04:34:36.177Z,99.57
2018-10-01T04:37:04.300Z,73.40
2018-10-01T04:39:32.354Z,74.37
2018-10-01T04:42:00.447Z,72.47
2018-10-01T04:44:28.572Z,63.13
2018-10-01T04:46:56.655Z,51.53
2018-10-01T04:49:24.727Z,56.00
2018-10-01T04:51:52.939Z,52.93
2018-10-01T04:54:20.985Z,53.50
2018-10-01T04:56:49.098Z,44.77
2018-10-01T04:59:17.188Z,39.47
2018-10-01T05:01:45.281Z,34.53
2018-10-01T05:04:13.355Z,34.53
2018-10-01T05:06:41.477Z,33.70
2018-10-01T05:09:10.273Z,34.37
2018-10-01T05:11:38.381Z,29.27
2018-10-01T05:14:06.814Z,30.83
2018-10-01T05:16:34.948Z,24.40
2018-10-01T05:19:03.030Z,19.37
2018-10-01T05:21:31.102Z,22.93
2018-10-01T05:23:59.275Z,24.40
2018-10-01T05:26:27.434Z,20.20
2018-10-01T05:28:55.518Z,16.20
2018-10-01T05:31:23.587Z,17.23
2018-10-01T05:33:51.675Z,16.73
2018-10-01T05:36:19.745Z,18.97
2018-10-01T05:38:47.826Z,17.27
2018-10-01T05:41:15.898Z,15.87
2018-10-01T05:43:43.981Z,18.43
2018-10-01T05:46:12.060Z,21.60
2018-10-01T05:48:40.158Z,17.43
2018-10-01T05:51:08.239Z,16.53
2018-10-01T05:53:36.329Z,18.13
2018-10-01T05:56:04.539Z,25.00
2018-10-01T05:58:32.623Z,22.73
2018-10-01T06:01:00.742Z,26.03
2018-10-01T06:03:28.831Z,21.97
2018-10-01T06:05:57.017Z,24.60
2018-10-01T06:08:25.136Z,23.67
2018-10-01T06:10:53.206Z,21.13
2018-10-01T06:13:21.286Z,26.67
2018-10-01T06:15:49.374Z,18.37
2018-10-01T06:18:17.510Z,19.77
2018-10-01T06:20:45.544Z,16.77
2018-10-01T06:23:13.767Z,15.63
2018-10-01T06:25:41.856Z,21.80
2018-10-01T06:28:10.115Z,18.33
2018-10-01T06:30:38.303Z,16.33
2018-10-01T06:33:06.378Z,23.60
2018-10-01T06:35:34.549Z,17.50
2018-10-01T06:38:02.724Z,26.10
2018-10-01T06:40:30.828Z,18.23
2018-10-01T06:42:58.898Z,24.07
2018-10-01T06:45:26.996Z,24.57
2018-10-01T06:47:55.071Z,20.60
2018-10-01T06:50:23.154Z,25.97
2018-10-01T06:52:51.314Z,18.10
2018-10-01T06:55:19.395Z,19.60
2018-10-01T06:57:47.468Z,23.20
2018-10-01T07:00:15.552Z,23.60
2018-10-01T07:02:43.617Z,31.43
2018-10-01T07:05:11.714Z,24.40
2018-10-01T07:07:39.829Z,24.83
2018-10-01T07:10:07.918Z,24.40
2018-10-01T07:12:35.987Z,26.07
2018-10-01T07:15:04.066Z,20.27
2018-10-01T07:17:32.190Z,20.67
2018-10-01T07:20:00.233Z,22.43
2018-10-01T07:22:28.384Z,18.83
2018-10-01T07:24:56.427Z,19.13
2018-10-01T07:27:24.479Z,20.60
2018-10-01T07:29:52.552Z,24.77
2018-10-01T07:32:20.638Z,25.20
2018-10-01T07:34:48.715Z,21.83
2018-10-01T07:37:16.794Z,25.57
2018-10-01T07:39:44.867Z,21.37
2018-10-01T07:42:12.953Z,33.77
2018-10-01T07:44:41.018Z,26.93
2018-10-01T07:47:09.105Z,19.73
2018-10-01T07:49:37.275Z,24.20
2018-10-01T07:52:05.522Z,24.10
2018-10-01T07:54:33.600Z,28.80
2018-10-01T07:57:01.724Z,21.97
2018-10-01T07:59:29.827Z,30.00
2018-10-01T08:01:57.926Z,22.67
2018-10-01T08:04:26.110Z,22.80
2018-10-01T08:06:54.361Z,27.00
2018-10-01T08:09:22.507Z,20.77
2018-10-01T08:11:50.524Z,22.50
2018-10-01T08:14:18.629Z,23.37
2018-10-01T08:16:46.702Z,28.13
2018-10-01T08:19:14.787Z,26.87
2018-10-01T08:21:42.983Z,24.93
2018-10-01T08:24:11.069Z,25.37
2018-10-01T08:26:39.213Z,24.50
2018-10-01T08:29:07.302Z,23.90
2018-10-01T08:31:35.309Z,28.37
2018-10-01T08:34:03.398Z,21.67
2018-10-01T08:36:31.480Z,25.87
2018-10-01T08:38:59.665Z,26.77
2018-10-01T08:41:27.713Z,26.27
2018-10-01T08:43:55.779Z,27.77
2018-10-01T08:46:23.840Z,25.73
2018-10-01T08:49:11.089Z,34.00
2018-10-01T08:51:58.827Z,27.77
2018-10-01T08:54:31.147Z,26.93
2018-10-01T08:56:59.265Z,29.13
2018-10-01T08:59:27.371Z,25.80
2018-10-01T09:01:55.456Z,24.23
2018-10-01T09:04:23.599Z,27.67
2018-10-01T09:06:51.741Z,19.63
2018-10-01T09:09:19.783Z,22.13
2018-10-01T09:11:47.866Z,20.87
2018-10-01T09:14:16.068Z,20.50
2018-10-01T09:16:44.066Z,22.20
2018-10-01T09:19:12.153Z,29.50
2018-10-01T09:21:40.411Z,29.73
2018-10-01T09:24:08.430Z,22.40
2018-10-01T09:26:36.570Z,25.97
2018-10-01T09:29:04.660Z,19.43
2018-10-01T09:31:32.763Z,24.23
2018-10-01T09:34:00.867Z,22.57
2018-10-01T09:36:28.944Z,24.37
2018-10-01T09:38:57.195Z,22.07
2018-10-01T09:41:25.317Z,20.60
2018-10-01T09:43:53.401Z,23.70
2018-10-01T09:46:21.513Z,21.37
2018-10-01T09:48:49.586Z,26.23
2018-10-01T09:51:17.666Z,21.40
2018-10-01T09:53:45.807Z,24.07
2018-10-01T09:56:13.968Z,20.97
2018-10-01T09:58:41.969Z,24.60
2018-10-01T10:01:12.483Z,25.20
2018-10-01T10:03:40.646Z,23.60
2018-10-01T10:06:09.143Z,28.17
2018-10-01T10:08:37.477Z,21.43
2018-10-01T10:11:05.574Z,21.10
2018-10-01T10:13:33.647Z,17.20
2018-10-01T10:16:01.749Z,23.17
2018-10-01T10:18:29.803Z,19.93
2018-10-01T10:20:57.919Z,20.60
2018-10-01T10:23:25.995Z,21.97
2018-10-01T10:25:54.202Z,14.50
2018-10-01T10:28:22.298Z,15.97
2018-10-01T10:30:50.354Z,20.33
2018-10-01T10:33:18.447Z,20.60
2018-10-01T10:35:46.514Z,16.73
2018-10-01T10:38:14.676Z,17.80
2018-10-01T10:40:42.710Z,14.17
2018-10-01T10:43:10.831Z,10.73
2018-10-01T10:45:38.917Z,15.70
2018-10-01T10:48:07.356Z,14.10
2018-10-01T10:50:35.626Z,11.87
2018-10-01T10:53:03.650Z,10.87
2018-10-01T10:55:31.743Z,11.17
2018-10-01T10:57:59.826Z,10.03
2018-10-01T11:00:27.901Z,8.23
2018-10-01T11:02:55.982Z,10.67
2018-10-01T11:05:24.068Z,4.20
2018-10-01T11:07:52.154Z,12.00
2018-10-01T11:10:20.226Z,12.47
2018-10-01T11:12:48.309Z,15.03
2018-10-01T11:15:16.614Z,10.77
2018-10-01T11:17:44.708Z,10.70
2018-10-01T11:20:12.838Z,11.20
2018-10-01T11:22:40.821Z,11.97
2018-10-01T11:25:08.954Z,10.20
2018-10-01T11:27:37.018Z,10.50
2018-10-01T11:30:05.560Z,9.87
2018-10-01T11:32:33.626Z,12.23
2018-10-01T11:35:01.841Z,11.83
2018-10-01T11:37:29.786Z,13.17
2018-10-01T11:39:57.893Z,13.07
2018-10-01T11:42:25.996Z,9.23
2018-10-01T11:44:54.155Z,11.57
2018-10-01T11:47:22.231Z,11.23
2018-10-01T11:49:50.317Z,14.47
2018-10-01T11:52:18.505Z,14.50
2018-10-01T11:54:46.794Z,14.83
2018-10-01T11:57:15.033Z,11.97
2018-10-01T11:59:42.965Z,14.87
2018-10-01T12:02:11.041Z,13.20
2018-10-01T12:04:39.139Z,12.67
2018-10-01T12:07:07.209Z,10.20
2018-10-01T12:09:35.366Z,14.37
2018-10-01T12:12:03.394Z,13.03
2018-10-01T12:14:31.457Z,10.67
2018-10-01T12:16:59.543Z,12.73
2018-10-01T12:19:27.614Z,11.70
2018-10-01T12:21:55.748Z,11.83
2018-10-01T12:24:23.782Z,14.47
2018-10-01T12:26:51.863Z,9.67
2018-10-01T12:29:19.975Z,14.30
2018-10-01T12:31:48.058Z,14.23
2018-10-01T12:34:16.140Z,13.03
2018-10-01T12:36:44.232Z,10.93
2018-10-01T12:39:12.364Z,14.70
2018-10-01T12:41:40.389Z,14.33
2018-10-01T12:44:08.458Z,12.30
2018-10-01T12:46:36.573Z,13.93
2018-10-01T12:49:04.645Z,15.90
2018-10-01T12:51:32.757Z,11.93
2018-10-01T12:54:00.876Z,10.33
2018-10-01T12:56:29.015Z,10.03
2018-10-01T12:58:57.058Z,10.60
2018-10-01T13:01:25.164Z,11.10
2018-10-01T13:03:53.234Z,7.47
2018-10-01T13:06:21.421Z,12.77
2018-10-01T13:08:49.424Z,11.27
2018-10-01T13:11:17.510Z,10.10
2018-10-01T13:13:45.668Z,9.27
2018-10-01T13:16:13.759Z,10.50
2018-10-01T13:18:41.932Z,13.43
2018-10-01T13:21:09.912Z,6.03
2018-10-01T13:23:37.998Z,9.03
2018-10-01T13:26:06.376Z,7.80
2018-10-01T13:28:34.669Z,11.53
2018-10-01T13:31:02.934Z,9.93
2018-10-01T13:33:31.013Z,6.20
2018-10-01T13:35:59.113Z,9.37
2018-10-01T13:38:27.407Z,8.80
2018-10-01T13:40:55.481Z,9.57
2018-10-01T13:43:23.565Z,6.47
2018-10-01T13:45:51.638Z,13.83
2018-10-01T13:48:19.780Z,12.07
2018-10-01T13:50:47.797Z,9.43
2018-10-01T13:53:15.877Z,9.77
2018-10-01T13:55:43.950Z,10.00
2018-10-01T13:58:12.067Z,15.90
2018-10-01T14:00:40.104Z,9.00
2018-10-01T14:03:08.196Z,10.43
2018-10-01T14:05:36.302Z,7.30
2018-10-01T14:08:04.369Z,5.07
2018-10-01T14:10:32.433Z,5.77
2018-10-01T14:13:00.551Z,5.47
2018-10-01T14:15:28.590Z,8.20
2018-10-01T14:17:56.662Z,3.93
2018-10-01T14:20:24.754Z,3.80
2018-10-01T14:22:53.042Z,8.03
2018-10-01T14:25:21.179Z,5.03
2018-10-01T14:27:49.189Z,10.37
2018-10-01T14:30:17.286Z,6.93
2018-10-01T14:32:45.457Z,9.07
2018-10-01T14:35:13.541Z,6.03
2018-10-01T14:37:41.622Z,4.27
2018-10-01T14:40:09.693Z,4.03
2018-10-01T14:42:37.827Z,5.27
2018-10-01T14:45:07.242Z,5.07
2018-10-01T14:47:35.308Z,5.30
2018-10-01T14:50:03.408Z,5.10
2018-10-01T14:52:31.477Z,4.40
2018-10-01T14:54:59.557Z,4.83
2018-10-01T14:57:27.649Z,8.00
2018-10-01T14:59:55.756Z,6.70
2018-10-01T15:02:23.809Z,6.10
2018-10-01T15:04:51.906Z,6.87
2018-10-01T15:07:19.972Z,4.20
2018-10-01T15:09:48.053Z,5.87
2018-10-01T15:12:16.209Z,7.87
2018-10-01T15:14:44.212Z,4.30
2018-10-01T15:17:12.344Z,5.53
2018-10-01T15:19:40.430Z,2.20
2018-10-01T15:22:08.514Z,2.20
2018-10-01T15:24:36.634Z,3.00
2018-10-01T15:27:04.671Z,2.77
2018-10-01T15:29:32.742Z,1.37
2018-10-01T15:32:00.993Z,3.73
2018-10-01T15:34:29.051Z,3.00
2018-10-01T15:36:57.227Z,6.87
2018-10-01T15:39:25.307Z,2.13
2018-10-01T15:41:53.554Z,3.10
2018-10-01T15:44:21.745Z,5.97
2018-10-01T15:46:49.904Z,4.10
2018-10-01T15:49:18.006Z,3.77
2018-10-01T15:51:46.250Z,3.90
2018-10-01T15:54:14.415Z,2.43
2018-10-01T15:56:42.501Z,4.73
2018-10-01T15:59:10.603Z,1.90
2018-10-01T16:01:38.721Z,3.33
2018-10-01T16:04:07.080Z,2.17
2018-10-01T16:06:35.180Z,3.20
2018-10-01T16:09:04.752Z,3.53
2018-10-01T16:11:33.120Z,1.80
2018-10-01T16:14:01.190Z,3.30
2018-10-01T16:16:29.453Z,2.60
2018-10-01T16:18:57.503Z,2.50
2018-10-01T16:21:25.787Z,2.00
2018-10-01T16:23:55.323Z,2.73
2018-10-01T16:26:23.860Z,5.33
2018-10-01T16:28:52.299Z,9.70
2018-10-01T16:31:20.383Z,1.20
2018-10-01T16:33:48.507Z,1.43
2018-10-01T16:36:16.554Z,1.50
2018-10-01T16:38:44.677Z,1.83
2018-10-01T16:41:12.792Z,4.93
2018-10-01T16:43:41.058Z,2.70
2018-10-01T16:46:09.134Z,1.40
2018-10-01T16:48:37.576Z,3.43
2018-10-01T16:51:05.989Z,2.40
2018-10-01T16:53:34.402Z,4.20
2018-10-01T16:56:02.674Z,1.37
2018-10-01T16:58:30.759Z,2.30
2018-10-01T17:00:58.864Z,3.97
2018-10-01T17:03:26.918Z,4.60
2018-10-01T17:05:57.828Z,3.37
2018-10-01T17:08:26.831Z,3.00
2018-10-01T17:10:55.010Z,2.70
2018-10-01T17:13:23.852Z,4.30
2018-10-01T17:15:52.264Z,2.67
2018-10-01T17:18:20.366Z,6.13
2018-10-01T17:20:48.441Z,1.87
2018-10-01T17:23:16.538Z,3.70
2018-10-01T17:25:44.613Z,5.77
2018-10-01T17:28:12.792Z,10.93
2018-10-01T17:30:41.018Z,5.47
2018-10-01T17:33:09.157Z,6.17
2018-10-01T17:35:37.320Z,5.37
2018-10-01T17:38:05.641Z,4.53
2018-10-01T17:40:33.845Z,3.00
2018-10-01T17:43:01.825Z,5.33
2018-10-01T17:45:29.901Z,4.07
2018-10-01T17:47:58.234Z,3.30
2018-10-01T17:50:26.395Z,5.37
2018-10-01T17:52:54.479Z,4.23
2018-10-01T17:55:22.770Z,7.17
2018-10-01T17:57:50.903Z,8.53
2018-10-01T18:00:19.044Z,9.07
2018-10-01T18:02:47.054Z,5.07
2018-10-01T18:05:15.222Z,10.37
2018-10-01T18:07:43.304Z,10.07
2018-10-01T18:10:11.385Z,9.17
2018-10-01T18:12:39.673Z,7.80
2018-10-01T18:15:09.092Z,3.77
2018-10-01T18:17:37.162Z,5.60
2018-10-01T18:20:05.265Z,4.80
2018-10-01T18:22:33.345Z,3.47
2018-10-01T18:25:01.418Z,2.43
2018-10-01T18:27:29.509Z,4.93
2018-10-01T18:29:57.686Z,5.07
2018-10-01T18:32:25.691Z,11.97
2018-10-01T18:34:53.806Z,3.67
2018-10-01T18:37:21.881Z,5.00
2018-10-01T18:39:50.061Z,7.13
2018-10-01T18:42:18.173Z,5.80
2018-10-01T18:44:46.216Z,4.93
2018-10-01T18:47:14.295Z,5.47
2018-10-01T18:49:42.375Z,8.33
2018-10-01T18:52:10.501Z,5.60
2018-10-01T18:54:38.670Z,3.70
2018-10-01T18:57:06.731Z,9.40
2018-10-01T18:59:34.961Z,9.73
2018-10-01T19:02:03.183Z,6.17
2018-10-01T19:04:31.274Z,16.53
2018-10-01T19:06:59.359Z,6.67
2018-10-01T19:09:27.433Z,6.00
2018-10-01T19:11:55.532Z,4.10
2018-10-01T19:14:23.586Z,4.73
2018-10-01T19:16:51.715Z,5.83
2018-10-01T19:19:19.873Z,6.77
2018-10-01T19:21:47.952Z,6.40
2018-10-01T19:24:16.213Z,6.50
2018-10-01T19:26:44.157Z,10.20
2018-10-01T19:29:12.225Z,8.17
2018-10-01T19:31:40.364Z,10.17
2018-10-01T19:34:08.384Z,6.50
2018-10-01T19:36:36.471Z,10.10
2018-10-01T19:39:06.985Z,7.63
2018-10-01T19:41:35.072Z,7.90
2018-10-01T19:44:03.461Z,11.57
2018-10-01T19:46:31.680Z,9.67
2018-10-01T19:48:59.931Z,7.97
2018-10-01T19:51:27.960Z,22.67
2018-10-01T19:53:56.104Z,8.80
2018-10-01T19:56:24.221Z,8.83
2018-10-01T19:58:52.368Z,10.87
2018-10-01T20:01:20.374Z,8.40
2018-10-01T20:03:48.471Z,11.37
2018-10-01T20:06:16.571Z,14.23
2018-10-01T20:08:44.757Z,8.33
2018-10-01T20:11:12.763Z,5.47
2018-10-01T20:13:40.840Z,9.50
2018-10-01T20:16:08.946Z,7.40
2018-10-01T20:18:37.220Z,8.07
2018-10-01T20:21:05.214Z,16.33
2018-10-01T20:23:33.336Z,9.87
2018-10-01T20:26:01.500Z,7.40
2018-10-01T20:28:29.725Z,9.63
2018-10-01T20:30:57.620Z,11.07
2018-10-01T20:33:25.793Z,8.70
2018-10-01T20:35:53.994Z,7.87
2018-10-01T20:38:22.135Z,7.93
2018-10-01T20:40:50.258Z,6.97
2018-10-01T20:43:18.305Z,5.03
2018-10-01T20:45:46.496Z,13.23
2018-10-01T20:48:14.624Z,7.67
2018-10-01T20:50:42.687Z,11.73
2018-10-01T20:53:10.860Z,4.70
2018-10-01T20:55:38.877Z,7.10
2018-10-01T20:58:06.949Z,8.33
2018-10-01T21:00:35.029Z,8.20
2018-10-01T21:03:03.114Z,10.10
2018-10-01T21:05:31.209Z,8.40
2018-10-01T21:07:59.286Z,6.80
2018-10-01T21:10:27.410Z,8.37
2018-10-01T21:12:55.508Z,9.40
2018-10-01T21:15:23.600Z,12.20
2018-10-01T21:17:51.713Z,13.07
2018-10-01T21:20:19.759Z,5.40
2018-10-01T21:22:47.854Z,11.47
2018-10-01T21:25:15.950Z,7.23
2018-10-01T21:27:44.033Z,9.33
2018-10-01T21:30:12.102Z,10.23
2018-10-01T21:32:40.265Z,10.50
2018-10-01T21:35:08.344Z,8.70
2018-10-01T21:37:36.424Z,7.47
2018-10-01T21:40:06.771Z,10.17
2018-10-01T21:42:34.857Z,7.37
2018-10-01T21:45:03.323Z,11.83
2018-10-01T21:47:31.920Z,9.63
2018-10-01T21:49:59.987Z,7.77
2018-10-01T21:52:28.678Z,9.77
2018-10-01T21:54:57.251Z,8.93
2018-10-01T21:57:25.348Z,9.93
2018-10-01T21:59:53.422Z,4.70
2018-10-01T22:02:21.808Z,7.70
2018-10-01T22:04:49.913Z,9.30
2018-10-01T22:07:18.442Z,7.43
2018-10-01T22:09:47.020Z,11.60
2018-10-01T22:12:15.107Z,5.93
2018-10-01T22:14:43.228Z,11.10
2018-10-01T22:17:11.653Z,8.80
2018-10-01T22:19:39.751Z,4.37
2018-10-01T22:22:08.111Z,9.17
2018-10-01T22:24:36.185Z,4.80
2018-10-01T22:27:04.281Z,11.33
2018-10-01T22:29:32.358Z,6.33
2018-10-01T22:32:00.547Z,6.23
2018-10-01T22:34:28.630Z,9.30
2018-10-01T22:36:56.715Z,11.37
2018-10-01T22:39:24.797Z,5.97
2018-10-01T22:41:52.989Z,7.20
2018-10-01T22:44:21.072Z,6.90
2018-10-01T22:46:49.141Z,9.03
2018-10-01T22:49:17.227Z,6.47
2018-10-01T22:51:45.303Z,12.73
2018-10-01T22:54:13.404Z,7.00
2018-10-01T22:56:41.582Z,10.30
2018-10-01T22:59:09.669Z,8.27
2018-10-01T23:01:37.737Z,10.03
2018-10-01T23:04:05.839Z,7.07
2018-10-01T23:06:33.941Z,5.80
2018-10-01T23:09:02.050Z,12.20
2018-10-01T23:11:30.133Z,7.33
2018-10-01T23:13:58.216Z,8.10
2018-10-01T23:16:26.289Z,7.50
2018-10-01T23:18:54.376Z,7.67
2018-10-01T23:21:22.464Z,12.60
2018-10-01T23:23:50.545Z,5.27
2018-10-01T23:26:18.618Z,9.63
2018-10-01T23:28:46.705Z,8.23
2018-10-01T23:31:14.786Z,7.90
2018-10-01T23:33:42.861Z,9.30
2018-10-01T23:36:10.949Z,7.10
2018-10-01T23:38:39.044Z,7.10
2018-10-01T23:41:07.830Z,12.30
2018-10-01T23:43:35.938Z,9.27
2018-10-01T23:46:04.061Z,12.43
2018-10-01T23:48:32.226Z,10.37
2018-10-01T23:51:00.359Z,8.83
2018-10-01T23:53:28.433Z,8.63
2018-10-01T23:55:56.517Z,8.60
2018-10-01T23:58:24.599Z,10.37
